ADDS METAR Data INFO
IDs: Format: Raw Decoded Include TAF

Data at: 1512 UTC 23 Oct 2017

KBXK 231455Z AUTO 35003KT 10SM CLR 21/M07 A3014 RMK AO1
KBXK 231435Z AUTO 06003KT 10SM CLR 18/M05 A3014 RMK AO1
KBXK 231415Z AUTO 09003KT 10SM CLR 18/M06 A3012 RMK AO1
KBXK 231355Z AUTO 08003KT 10SM CLR 18/M06 A3012 RMK AO1
KBXK 231335Z AUTO 07005KT 10SM CLR 16/M07 A3011 RMK AO1
KBXK 231315Z AUTO 01005KT 10SM CLR 15/M09 A3011 RMK AO1
KBXK 231255Z AUTO 06003KT 10SM CLR 15/M08 A3011 RMK AO1
KBXK 231235Z AUTO 05003KT 10SM CLR 15/M09 A3011 RMK AO1
KBXK 231215Z AUTO 35006KT 10SM CLR 15/M10 A3010 RMK AO1
KBXK 231155Z AUTO 36008KT 10SM CLR 15/M10 A3010 RMK AO1
KBXK 231135Z AUTO 03005KT 10SM CLR 17/M10 A3010 RMK AO1
KBXK 231115Z AUTO 04004KT 10SM CLR 18/M10 A3009 RMK AO1
KBXK 231055Z AUTO 03003KT 10SM CLR 18/M10 A3009 RMK AO1
KBXK 231035Z AUTO 00000KT 10SM CLR 17/M10 A3009 RMK AO1
KBXK 231015Z AUTO 02005KT 10SM CLR 17/M10 A3009 RMK AO1
KBXK 230955Z AUTO 02008KT 10SM CLR 15/M11 A3009 RMK AO1
KBXK 230935Z AUTO 02004KT 10SM CLR 17/M10 A3009 RMK AO1
KBXK 230915Z AUTO 05004KT 10SM CLR 18/M09 A3010 RMK AO1
KBXK 230855Z AUTO 36006KT 10SM CLR 20/M10 A3009 RMK AO1
KBXK 230835Z AUTO 35007KT 10SM CLR 20/M10 A3009 RMK AO1
KBXK 230815Z AUTO 34006KT 10SM CLR 22/M09 A3009 RMK AO1
KBXK 230755Z AUTO 36005KT 10SM CLR 22/M10 A3009 RMK AO1
KBXK 230735Z AUTO 35009KT 10SM CLR 20/M10 A3009 RMK AO1
KBXK 230715Z AUTO 04005KT 10SM CLR 21/M10 A3009 RMK AO1
KBXK 230655Z AUTO 36007KT 10SM CLR 23/M10 A3008 RMK AO1
KBXK 230635Z AUTO 35011KT 10SM CLR 23/M11 A3008 RMK AO1
KBXK 230615Z AUTO 35009KT 10SM CLR 23/M11 A3009 RMK AO1
KBXK 230555Z AUTO 34008KT 10SM CLR 23/M12 A3009 RMK AO1
KBXK 230535Z AUTO 35011KT 10SM CLR 23/M12 A3009 RMK AO1
KBXK 230515Z AUTO 35010KT 10SM CLR 23/M12 A3009 RMK AO1
KBXK 230455Z AUTO 35008KT 10SM CLR 23/M12 A3009 RMK AO1
KBXK 230435Z AUTO 34007KT 10SM CLR 21/M11 A3009 RMK AO1
KBXK 230415Z AUTO 33007KT 10SM CLR 22/M10 A3009 RMK AO1
KBXK 230355Z AUTO 32006KT 9SM CLR 22/M10 A3009 RMK AO1
KBXK 230335Z AUTO 35007KT 10SM CLR 22/M11 A3009 RMK AO1
KBXK 230315Z AUTO 36008KT 10SM CLR 23/M11 A3009 RMK AO1
KBXK 230255Z AUTO 31008KT 10SM CLR 25/M10 A3009 RMK AO1
KBXK 230235Z AUTO 30007KT 10SM CLR 27/M11 A3008 RMK AO1
KBXK 230215Z AUTO 30008KT 10SM CLR 27/M10 A3008 RMK AO1
KBXK 230155Z AUTO 31008KT 10SM CLR 27/M10 A3008 RMK AO1
KBXK 230135Z AUTO 30008KT 10SM CLR 27/M11 A3007 RMK AO1
KBXK 230115Z AUTO 29006KT 10SM CLR 27/M08 A3007 RMK AO1
KBXK 230055Z AUTO 28006KT 10SM CLR 29/M10 A3007 RMK AO1
KBXK 230035Z AUTO 28003KT 10SM CLR 31/12 A3007 RMK AO1
KBXK 230015Z AUTO 29005KT 10SM CLR 32/14 A3007 RMK AO1
KBXK 222355Z AUTO 31005KT 10SM CLR 33/09 A3007 RMK AO1
KBXK 222335Z AUTO 26003KT 10SM CLR 33/14 A3007 RMK AO1
KBXK 222315Z AUTO 30004KT 10SM CLR 33/16 A3008 RMK AO1
KBXK 222255Z AUTO 29004KT 10SM CLR 33/17 A3008 RMK AO1
KBXK 222235Z AUTO 00000KT 10SM CLR 33/19 A3009 RMK AO1
KBXK 222215Z AUTO 00000KT 10SM CLR 33/24 A3009 RMK AO1
KBXK 222155Z AUTO 31003KT 10SM CLR 32/27 A3010 RMK AO1
KBXK 222135Z AUTO 18003KT 10SM CLR 32/27 A3010 RMK AO1
KBXK 222115Z AUTO 17005KT 10SM CLR 32/26 A3011 RMK AO1
KBXK 222055Z AUTO 18008KT 10SM CLR 31/28 A3012 RMK AO1
KBXK 222035Z AUTO 22005KT 10SM CLR 31/30 A3013 RMK AO1
KBXK 222015Z AUTO 27004KT 10SM CLR 30/02 A3013 RMK AO1
KBXK 221955Z AUTO 23003KT 10SM CLR 30/13 A3014 RMK AO1
KBXK 221935Z AUTO 20003KT 10SM CLR 29/29 A3015 RMK AO1
KBXK 221915Z AUTO 22004KT 10SM CLR 28/28 A3016 RMK AO1
KBXK 221855Z AUTO 17003KT 10SM CLR 28/28 A3018 RMK AO1
KBXK 221835Z AUTO 16003KT 10SM CLR 27/24 A3019 RMK AO1
KBXK 221815Z AUTO 12005KT 10SM CLR 27/25 A3019 RMK AO1
KBXK 221755Z AUTO 18004KT 10SM CLR 26/17 A3020 RMK AO1
KBXK 221735Z AUTO 22003KT 10SM CLR 26/19 A3020 RMK AO1
KBXK 221715Z AUTO 24004KT 10SM CLR 25/19 A3020 RMK AO1
KBXK 221655Z AUTO 26004KT 10SM CLR 24/15 A3020 RMK AO1
KBXK 221635Z AUTO 30003KT 10SM CLR 23/14 A3021 RMK AO1
KBXK 221615Z AUTO 34003KT 10SM CLR 22/16 A3020 RMK AO1
KBXK 221555Z AUTO 35006KT 10SM CLR 22/18 A3020 RMK AO1
KBXK 221535Z AUTO 35008KT 10SM CLR 20/M13 A3020 RMK AO1
KBXK 221515Z AUTO 36006KT 10SM CLR 19/M13 A3019 RMK AO1
KBXK 221455Z AUTO 36006KT 10SM CLR 19/M13 A3018 RMK AO1
KBXK 221435Z AUTO 01007KT 10SM CLR 17/M13 A3017 RMK AO1
KBXK 221415Z AUTO 02004KT 10SM CLR 15/M11 A3016 RMK AO1
KBXK 221355Z AUTO 01006KT 10SM CLR 14/M12 A3014 RMK AO1
KBXK 221335Z AUTO 35006KT 10SM FEW038 14/M13 A3013 RMK AO1
KBXK 221315Z AUTO 02005KT 10SM FEW038 SCT060 13/M12 A3013 RMK AO1
KBXK 221255Z AUTO 01005KT 10SM FEW060 12/M11 A3013 RMK AO1
KBXK 221235Z AUTO 02005KT 10SM FEW041 FEW060 12/M07 A3013 RMK AO1
KBXK 221215Z AUTO 06003KT 10SM FEW030 FEW039 FEW060 12/M05 A3013 RMK AO1
KBXK 221155Z AUTO 09003KT 10SM SCT030 BKN035 15/M13 A3013 RMK AO1
KBXK 221135Z AUTO 34006KT 10SM BKN030 BKN038 BKN065 16/M13 A3012 RMK AO1
KBXK 221115Z AUTO 35007KT 10SM SCT033 SCT065 15/M13 A3012 RMK AO1
KBXK 221055Z AUTO 01007KT 10SM FEW033 SCT039 SCT065 15/M13 A3011 RMK AO1
KBXK 221035Z AUTO 36006KT 10SM FEW038 SCT065 15/M13 A3011 RMK AO1
KBXK 221015Z AUTO 35008KT 10SM FEW035 SCT065 15/M13 A3011 RMK AO1
KBXK 220955Z AUTO 35006KT 10SM SCT035 15/M13 A3011 RMK AO1
KBXK 220935Z AUTO 35008KT 10SM SCT037 14/M12 A3010 RMK AO1
KBXK 220915Z AUTO 34006KT 10SM SCT040 14/M11 A3011 RMK AO1
KBXK 220855Z AUTO 33007KT 10SM FEW044 15/M12 A3011 RMK AO1
KBXK 220835Z AUTO 31003KT 10SM SCT042 16/M11 A3010 RMK AO1
KBXK 220815Z AUTO 34006KT 10SM BKN042 18/M13 A3009 RMK AO1
KBXK 220755Z AUTO 34008KT 10SM BKN042 BKN048 19/M12 A3009 RMK AO1
KBXK 220735Z AUTO 34010KT 10SM BKN039 BKN046 19/M12 A3009 RMK AO1
KBXK 220715Z AUTO 33009KT 10SM FEW041 18/M12 A3009 RMK AO1
KBXK 220655Z AUTO 33009KT 10SM CLR 18/M11 A3008 RMK AO1
KBXK 220635Z AUTO 34008KT 10SM CLR 18/M11 A3008 RMK AO1
KBXK 220615Z AUTO 32008KT 10SM CLR 18/M10 A3008 RMK AO1
KBXK 220555Z AUTO 29006KT 10SM CLR 18/M09 A3007 RMK AO1
KBXK 220535Z AUTO 27007KT 10SM CLR 18/M09 A3007 RMK AO1
KBXK 220515Z AUTO 33006KT 10SM CLR 19/M09 A3006 RMK AO1
KBXK 220455Z AUTO 32008KT 10SM CLR 19/M09 A3005 RMK AO1
KBXK 220435Z AUTO 32008KT 10SM CLR 21/M09 A3005 RMK AO1
KBXK 220415Z AUTO 33008KT 10SM CLR 22/M09 A3005 RMK AO1
KBXK 220355Z AUTO 34008KT 10SM CLR 19/M08 A3004 RMK AO1
KBXK 220335Z AUTO 34006KT 10SM CLR 22/M08 A3003 RMK AO1
KBXK 220315Z AUTO 32007KT 10SM CLR 22/M08 A3003 RMK AO1